createdAt,value
2022-10-05T00:02:49.804Z,23.28
2022-10-05T00:07:57.389Z,23.29
2022-10-05T00:13:00.970Z,23.21
2022-10-05T00:18:12.523Z,23.20
2022-10-05T00:23:20.218Z,23.16
2022-10-05T00:28:28.601Z,23.18
2022-10-05T00:33:32.228Z,23.14
2022-10-05T00:38:37.471Z,23.05
2022-10-05T00:44:08.967Z,22.98
2022-10-05T00:49:20.598Z,22.98
2022-10-05T00:54:35.066Z,23.20
2022-10-05T00:59:49.802Z,22.98
2022-10-05T01:04:57.775Z,22.77
2022-10-05T01:10:13.234Z,22.87
2022-10-05T01:15:23.319Z,22.78
2022-10-05T01:20:43.114Z,22.46
2022-10-05T01:26:01.262Z,22.65
2022-10-05T01:31:13.136Z,22.55
2022-10-05T01:36:24.689Z,22.26
2022-10-05T01:41:34.683Z,22.27
2022-10-05T01:46:46.963Z,21.84
2022-10-05T01:52:03.860Z,21.67
2022-10-05T01:57:15.194Z,20.96
2022-10-05T02:02:23.814Z,20.60
2022-10-05T02:07:33.424Z,20.23
2022-10-05T02:12:39.024Z,20.28
2022-10-05T02:17:49.213Z,20.12
2022-10-05T02:22:56.718Z,19.84
2022-10-05T02:28:06.594Z,19.75
2022-10-05T02:33:18.360Z,19.65
2022-10-05T02:38:34.332Z,19.40
2022-10-05T02:43:47.982Z,19.41
2022-10-05T02:49:05.324Z,19.39
2022-10-05T02:54:21.310Z,19.37
2022-10-05T02:59:31.520Z,19.20
2022-10-05T03:04:42.197Z,19.03
2022-10-05T03:09:55.719Z,18.85
2022-10-05T03:15:09.694Z,18.83
2022-10-05T03:20:27.348Z,18.71
2022-10-05T03:25:44.959Z,18.81
2022-10-05T03:30:56.254Z,19.03
2022-10-05T03:36:20.361Z,18.94
2022-10-05T03:41:32.334Z,18.86
2022-10-05T03:46:50.109Z,18.83
2022-10-05T03:52:02.242Z,18.64
2022-10-05T03:57:12.261Z,18.79
2022-10-05T04:02:23.662Z,18.22
2022-10-05T04:07:41.058Z,17.81
2022-10-05T04:12:49.879Z,17.62
2022-10-05T04:18:00.141Z,17.49
2022-10-05T04:23:15.537Z,17.34
2022-10-05T04:28:31.051Z,17.08
2022-10-05T04:33:35.702Z,16.96
2022-10-05T04:39:08.810Z,16.94
2022-10-05T04:44:43.779Z,16.78
2022-10-05T04:50:09.653Z,16.65
2022-10-05T04:55:25.900Z,16.57
2022-10-05T05:00:39.304Z,16.45
2022-10-05T05:06:15.244Z,16.38
2022-10-05T05:11:27.814Z,16.33
2022-10-05T05:16:38.135Z,16.22
2022-10-05T05:21:50.487Z,16.19
2022-10-05T05:27:33.818Z,16.14
2022-10-05T05:32:44.650Z,16.07
2022-10-05T05:37:53.667Z,15.98
2022-10-05T05:43:01.276Z,15.91
2022-10-05T05:48:14.244Z,15.82
2022-10-05T05:53:23.545Z,15.74
2022-10-05T05:58:35.811Z,15.70
2022-10-05T06:03:44.138Z,15.56
2022-10-05T06:08:50.571Z,15.52
2022-10-05T06:13:58.959Z,15.52
2022-10-05T06:19:09.652Z,15.48
2022-10-05T06:24:21.385Z,15.39
2022-10-05T06:29:35.969Z,15.38
2022-10-05T06:34:55.052Z,15.33
2022-10-05T06:40:09.518Z,15.31
2022-10-05T06:45:23.000Z,15.22
2022-10-05T06:50:37.082Z,15.15
2022-10-05T06:55:49.168Z,15.04
2022-10-05T07:01:00.061Z,15.04
2022-10-05T07:06:12.069Z,15.01
2022-10-05T07:11:29.951Z,14.91
2022-10-05T07:16:46.137Z,14.90
2022-10-05T07:21:55.510Z,14.79
2022-10-05T07:27:08.660Z,14.80
2022-10-05T07:32:28.436Z,14.79
2022-10-05T07:37:42.668Z,14.70
2022-10-05T07:43:01.723Z,14.68
2022-10-05T07:48:15.795Z,14.66
2022-10-05T07:53:23.167Z,14.57
2022-10-05T07:58:29.527Z,14.51
2022-10-05T08:03:45.698Z,14.48
2022-10-05T08:08:53.649Z,14.37
2022-10-05T08:14:05.211Z,14.33
2022-10-05T08:19:19.317Z,14.28
2022-10-05T08:24:39.736Z,14.31
2022-10-05T08:29:56.519Z,14.16
2022-10-05T08:35:21.313Z,14.18
2022-10-05T08:40:57.879Z,14.18
2022-10-05T08:46:22.225Z,14.06
2022-10-05T08:51:54.432Z,14.03
2022-10-05T08:57:19.727Z,13.99
2022-10-05T09:02:32.653Z,14.01
2022-10-05T09:08:08.443Z,13.93
2022-10-05T09:13:30.067Z,13.83
2022-10-05T09:18:52.929Z,13.75
2022-10-05T09:24:10.251Z,13.72
2022-10-05T09:29:39.365Z,13.71
2022-10-05T09:35:00.213Z,13.68
2022-10-05T09:40:35.627Z,13.64
2022-10-05T09:46:04.850Z,13.59
2022-10-05T09:51:49.992Z,13.54
2022-10-05T09:57:21.122Z,13.51
2022-10-05T10:03:00.211Z,13.45
2022-10-05T10:08:20.112Z,13.46
2022-10-05T10:13:43.860Z,13.46
2022-10-05T10:19:09.532Z,13.37
2022-10-05T10:24:28.547Z,13.29
2022-10-05T10:29:58.188Z,13.26
2022-10-05T10:35:16.765Z,13.18
2022-10-05T10:40:37.593Z,13.17
2022-10-05T10:45:53.511Z,13.14
2022-10-05T10:51:18.174Z,13.13
2022-10-05T10:56:44.568Z,13.08
2022-10-05T11:02:05.029Z,13.07
2022-10-05T11:07:36.050Z,13.12
2022-10-05T11:13:17.714Z,13.10
2022-10-05T11:18:36.571Z,12.97
2022-10-05T11:24:10.041Z,12.99
2022-10-05T11:29:53.179Z,12.97
2022-10-05T11:35:26.376Z,12.91
2022-10-05T11:40:59.215Z,12.93
2022-10-05T11:46:11.391Z,12.85
2022-10-05T11:51:31.258Z,12.77
2022-10-05T11:56:39.864Z,12.78
2022-10-05T12:01:53.462Z,12.76
2022-10-05T12:07:08.352Z,12.67
2022-10-05T12:12:21.244Z,12.63
2022-10-05T12:17:35.400Z,12.57
2022-10-05T12:22:42.340Z,12.57
2022-10-05T12:27:48.895Z,12.47
2022-10-05T12:33:05.606Z,12.46
2022-10-05T12:38:18.103Z,12.42
2022-10-05T12:43:29.476Z,12.42
2022-10-05T12:48:57.164Z,12.44
2022-10-05T12:54:08.706Z,12.39
2022-10-05T12:59:22.125Z,12.36
2022-10-05T13:04:40.134Z,12.38
2022-10-05T13:09:54.077Z,12.37
2022-10-05T13:15:05.714Z,12.29
2022-10-05T13:20:21.529Z,12.23
2022-10-05T13:25:30.959Z,12.12
2022-10-05T13:30:35.027Z,12.11
2022-10-05T13:35:46.278Z,12.11
2022-10-05T13:41:00.638Z,12.11
2022-10-05T13:46:12.509Z,12.19
2022-10-05T13:51:22.998Z,12.18
2022-10-05T13:56:31.351Z,12.03
2022-10-05T14:01:42.707Z,11.98
2022-10-05T14:06:48.919Z,11.99
2022-10-05T14:11:55.073Z,11.97
2022-10-05T14:17:00.195Z,11.95
2022-10-05T14:22:14.174Z,11.94
2022-10-05T14:27:25.985Z,12.05
2022-10-05T14:32:33.893Z,12.06
2022-10-05T14:37:51.164Z,12.25
2022-10-05T14:42:55.457Z,12.32
2022-10-05T14:48:10.746Z,12.45
2022-10-05T14:53:18.832Z,12.72
2022-10-05T14:58:39.186Z,13.11
2022-10-05T15:03:51.815Z,13.48
2022-10-05T15:09:19.387Z,13.78
2022-10-05T15:14:26.169Z,14.01
2022-10-05T15:19:42.737Z,14.45
2022-10-05T15:25:01.157Z,15.78
2022-10-05T15:30:10.842Z,15.94
2022-10-05T15:35:39.159Z,16.22
2022-10-05T15:40:48.145Z,16.59
2022-10-05T15:46:00.909Z,17.21
2022-10-05T15:51:14.018Z,17.40
2022-10-05T15:56:27.468Z,17.81
2022-10-05T16:01:47.245Z,18.28
2022-10-05T16:06:57.700Z,18.76
2022-10-05T16:12:14.919Z,19.00
2022-10-05T16:17:44.895Z,19.32
2022-10-05T16:22:55.486Z,19.44
2022-10-05T16:28:13.902Z,19.52
2022-10-05T16:33:24.556Z,19.83
2022-10-05T16:38:36.524Z,19.76
2022-10-05T16:43:49.175Z,20.14
2022-10-05T16:49:03.799Z,20.35
2022-10-05T16:54:17.406Z,20.24
2022-10-05T16:59:55.915Z,20.56
2022-10-05T17:05:13.534Z,20.90
2022-10-05T17:10:42.581Z,20.95
2022-10-05T17:16:00.839Z,21.15
2022-10-05T17:21:12.169Z,21.07
2022-10-05T17:26:53.211Z,21.36
2022-10-05T17:32:28.394Z,21.50
2022-10-05T17:37:39.379Z,21.67
2022-10-05T17:42:47.922Z,21.91
2022-10-05T17:47:58.645Z,22.23
2022-10-05T17:53:22.180Z,22.23
2022-10-05T17:59:01.211Z,22.37
2022-10-05T18:04:26.967Z,22.28
2022-10-05T18:09:51.356Z,22.39
2022-10-05T18:15:03.269Z,22.30
2022-10-05T18:20:18.436Z,22.17
2022-10-05T18:25:30.519Z,22.42
2022-10-05T18:30:44.388Z,22.29
2022-10-05T18:36:01.211Z,22.25
2022-10-05T18:41:14.381Z,22.32
2022-10-05T18:46:29.320Z,22.09
2022-10-05T18:51:40.626Z,22.62
2022-10-05T18:56:50.384Z,23.15
2022-10-05T19:02:12.132Z,23.33
2022-10-05T19:07:27.569Z,23.42
2022-10-05T19:12:40.589Z,23.46
2022-10-05T19:18:13.898Z,23.58
2022-10-05T19:23:42.402Z,23.72
2022-10-05T19:29:01.882Z,23.99
2022-10-05T19:34:17.272Z,23.97
2022-10-05T19:39:35.997Z,24.23
2022-10-05T19:44:56.905Z,24.43
2022-10-05T19:50:03.182Z,24.27
2022-10-05T19:55:16.148Z,24.25
2022-10-05T20:00:26.906Z,24.35
2022-10-05T20:05:30.748Z,24.39
2022-10-05T20:10:35.026Z,24.43
2022-10-05T20:15:40.677Z,24.58
2022-10-05T20:20:47.153Z,24.53
2022-10-05T20:25:53.810Z,24.69
2022-10-05T20:31:01.059Z,24.94
2022-10-05T20:36:05.111Z,24.94
2022-10-05T20:41:08.918Z,25.16
2022-10-05T20:46:14.386Z,25.29
2022-10-05T20:51:18.211Z,25.44
2022-10-05T20:56:21.944Z,25.30
2022-10-05T21:01:27.699Z,25.42
2022-10-05T21:06:31.562Z,25.84
2022-10-05T21:11:35.324Z,25.92
2022-10-05T21:16:41.395Z,26.13
2022-10-05T21:21:48.410Z,26.21
2022-10-05T21:26:52.302Z,26.38
2022-10-05T21:31:57.723Z,26.37
2022-10-05T21:37:01.375Z,26.41
2022-10-05T21:42:05.359Z,26.44
2022-10-05T21:47:12.621Z,26.50
2022-10-05T21:52:16.272Z,26.43
2022-10-05T21:57:19.856Z,26.49
2022-10-05T22:02:25.125Z,26.57
2022-10-05T22:07:29.881Z,26.63
2022-10-05T22:12:33.187Z,26.58
2022-10-05T22:17:38.479Z,26.57
2022-10-05T22:22:46.763Z,26.66
2022-10-05T22:27:50.962Z,26.56
2022-10-05T22:32:56.312Z,26.68
2022-10-05T22:37:59.981Z,26.61
2022-10-05T22:43:03.566Z,26.65
2022-10-05T22:48:08.749Z,26.64
2022-10-05T22:53:12.363Z,26.75
2022-10-05T22:58:15.907Z,26.79
2022-10-05T23:03:21.223Z,26.82
2022-10-05T23:08:25.281Z,26.75
2022-10-05T23:13:29.276Z,26.66
2022-10-05T23:18:34.589Z,26.65
2022-10-05T23:23:39.353Z,26.57
2022-10-05T23:28:43.811Z,26.49
2022-10-05T23:33:49.053Z,26.36
2022-10-05T23:38:53.206Z,26.28
2022-10-05T23:43:56.721Z,26.14
2022-10-05T23:49:01.883Z,26.12
2022-10-05T23:54:05.617Z,26.12
2022-10-05T23:59:09.161Z,26.03
